Lockport, NY

1:15 AM EDT on October 01, 2014 (GMT -0400)
Niagara Falls International | Change Station
CLOSE
Current Station
Airport
Location: Niagara Falls,
Elevation: 178 m
Nearby Weather Stations

Elev 178 m 43.11 °N, 78.94 °W | Updated 22 minutes ago

Overcast
Overcast
16 °C
Feels Like 16 °C
N
15
Wind Variable Wind from NE

Today
High -- | Low -- °C
--% Chance of Precip.
Yesterday
High -- | Low -- °C
Precip. -- mm
7:12 AM 6:56 PM
Waxing Crescent, 43% visible
Pressure 1016 hPa
Visibility 8.0 kilometers
Clouds Overcast 274 m
Dew Point 14 °C
Humidity 90%
Rainfall 0.0 mm
Snow Depth Not available.
UV 0 out of 12
Pollen .90 out of 12
Ozone Good
PM2.5 Moderate
Flu Activity Not available.
METAR KIAG 010453Z AUTO 04008KT 5SM BR OVC009 16/14 A2999 RMK AO2 CIG 007V011 SLP156 T01560139 402220111

More Conditions Fewer Conditions

Pressure 1016 hPa
Visibility 8.0 kilometers
Clouds Overcast 274 m
Dew Point 14 °C
Humidity 90%
Rainfall 0.0 mm
Snow Depth Not available.
UV 0 out of 12
Pollen .90 out of 12
Ozone Good
PM2.5 Moderate
Flu Activity Not available.
METAR KIAG 010453Z AUTO 04008KT 5SM BR OVC009 16/14 A2999 RMK AO2 CIG 007V011 SLP156 T01560139 402220111

More Conditions Fewer Conditions

10-Day Weather Forecast

Almanac

Astronomy

Oct. 01, 2014 Rise Set
Actual Time 7:12 AM EDT 6:56 PM EDT
Civil Twilight 6:43 AM EDT 7:24 PM EDT
Nautical Twilight 6:10 AM EDT 7:57 PM EDT
Astronomical Twilight 5:37 AM EDT 8:30 PM EDT
Moon 2:18 PM EDT No Moon Set
Length of Visible Light 12h 40m
Length of Day
11h 43m
Tomorrow will be 2m 55s shorter.
Waxing Crescent, 43% of the Moon is Illuminated
Today
Waxing Crescent
Oct 1
First Quarter
Oct 8
Full
Oct 15
Last Quarter
Oct 23
New

Today's Extremes

State Highs State Lows

Community

WunderPhotos

Upload Photos

1,757,851 photos uploaded!

Nearby

Air Quality

  Air Quality AQ Index Pollutant
Yesterday Moderate
PM2.5
Yesterday Good
OZONE
Current Moderate
PM2.5
Current Good
OZONE
Tuesday Moderate
PM2.5
Tuesday Good
OZONE
Wednesday Good
PM2.5

Snow Depth

Station Depth Elevation
No new snow has been reported.

Earthquake Activity

City Distance Mag. Time & Date
No recent earthquake activity has been reported nearby.
Minimum magnitude displayed is 2.5.

Coastal Water Temperatures

Place Temperature
Buffalo, NY 20.0 °C

Nearby Weather Stations